PWSweather.com
Personal Weather Stations
Station Observations
CESCMETEO
Castellbell I El Vilar, BarcelonaES

Castellbell I El VilarBarcelonaES

Lat: 41.6366917, Lon: 1.8552

Elevation: 187

Station Type: Davis Vantage Pro2 Plus

Latest ConditionsUpdated 9:15:00 AM GMT+01:01 Thursday, Jun 20, 2019
Currently Today's Max Today's Min Today's Average
Temperature 73.9°F23.3°C 73.9°F23.3°C 61.7°F16.5°C 65.8°F18.8°C
Dew Point 63.9°F17.7°C 63.9°F17.7°C 57.6°F14.2°C 60.2°F15.7°C
Winds Calm Calm Calm -Calm - - Calm Calm
Wind Gusts 2.0 mph3.2 kmh 2.0 mph3.2 kmh - -
Humidity 71% 87% 71% 82%
Pressure 29.96 in1014.6 mb 29.97 in1014.9 mb 29.93 in1013.5 mb -
Hour Temp Dew Point Humidity Winds Wind Gusts Pressure Precip Precip Rate Daily Precip Total
09:15 AM 73.9°F23.3°C 63.9°F17.7°C 71% Calm Calm 2.0 mph3.2 kmh 29.96 in1014.6 mb 0.00 in0.0 mm 0.00 in0.0 mm 1.69 in42.9 mm
09:00 AM 73.6°F23.1°C 63.6°F17.6°C 71% Calm Calm -- 29.96 in1014.6 mb 0.00 in0.0 mm 0.00 in0.0 mm 1.69 in42.9 mm
08:45 AM 73.4°F23.0°C 63.4°F17.4°C 71% Calm Calm -- 29.96 in1014.6 mb 0.00 in0.0 mm 0.00 in0.0 mm 1.69 in42.9 mm
08:30 AM 72.7°F22.6°C 63.5°F17.5°C 73% Calm Calm -- 29.97 in1014.9 mb 0.00 in0.0 mm 0.00 in0.0 mm 1.69 in42.9 mm
08:15 AM 70.5°F21.4°C 63.0°F17.2°C 77% Calm Calm -- 29.97 in1014.9 mb 0.00 in0.0 mm 0.00 in0.0 mm 1.69 in42.9 mm
08:00 AM 68.4°F20.2°C 61.6°F16.4°C 79% Calm Calm -- 29.96 in1014.6 mb 0.00 in0.0 mm 0.00 in0.0 mm 1.69 in42.9 mm
07:45 AM 67.3°F19.6°C 60.9°F16.1°C 80% Calm Calm -- 29.97 in1014.9 mb 0.00 in0.0 mm 0.00 in0.0 mm 1.69 in42.9 mm
07:30 AM 65.8°F18.8°C 60.5°F15.8°C 83% Calm Calm -- 29.96 in1014.6 mb 0.00 in0.0 mm 0.00 in0.0 mm 1.69 in42.9 mm
07:15 AM 64.6°F18.1°C 60.0°F15.6°C 85% Calm Calm -- 29.96 in1014.6 mb 0.00 in0.0 mm 0.00 in0.0 mm 1.69 in42.9 mm
07:00 AM 63.1°F17.3°C 59.2°F15.1°C 87% Calm Calm -- 29.96 in1014.6 mb 0.00 in0.0 mm 0.00 in0.0 mm 1.69 in42.9 mm
06:45 AM 62.8°F17.1°C 58.9°F14.9°C 87% Calm Calm -- 29.96 in1014.6 mb 0.00 in0.0 mm 0.00 in0.0 mm 1.69 in42.9 mm
06:30 AM 62.1°F16.7°C 58.1°F14.5°C 87% Calm Calm -- 29.96 in1014.6 mb 0.00 in0.0 mm 0.00 in0.0 mm 1.69 in42.9 mm
06:15 AM 61.7°F16.5°C 57.8°F14.3°C 87% Calm Calm -- 29.95 in1014.2 mb 1.69 in42.9 mm 0.00 in0.0 mm 1.69 in42.9 mm
06:00 AM 61.9°F16.6°C 57.6°F14.2°C 86% Calm Calm -- 29.95 in1014.2 mb 1.69 in42.9 mm 2.25 in57.2 mm 1.69 in42.9 mm
05:45 AM 62.2°F16.8°C 58.0°F14.4°C 86% Calm Calm -- 29.95 in1014.2 mb 0.00 in0.0 mm 0.00 in0.0 mm 0.00 in0.0 mm
05:30 AM 62.2°F16.8°C 58.0°F14.4°C 86% Calm Calm -- 29.95 in1014.2 mb 0.00 in0.0 mm 0.00 in0.0 mm 0.00 in0.0 mm
05:15 AM 62.4°F16.9°C 58.2°F14.6°C 86% Calm Calm -- 29.95 in1014.2 mb 0.00 in0.0 mm 0.00 in0.0 mm 0.00 in0.0 mm
05:00 AM 63.0°F17.2°C 58.4°F14.7°C 85% Calm Calm -- 29.95 in1014.2 mb 0.00 in0.0 mm 0.00 in0.0 mm 0.00 in0.0 mm
04:45 AM 63.1°F17.3°C 58.9°F14.9°C 86% Calm Calm -- 29.95 in1014.2 mb 0.00 in0.0 mm 0.00 in0.0 mm 0.00 in0.0 mm
04:30 AM 63.5°F17.5°C 58.6°F14.8°C 84% Calm Calm -- 29.94 in1013.9 mb 0.00 in0.0 mm 0.00 in0.0 mm 0.00 in0.0 mm
04:15 AM 63.7°F17.6°C 59.1°F15.1°C 85% Calm Calm -- 29.94 in1013.9 mb 0.00 in0.0 mm 0.00 in0.0 mm 0.00 in0.0 mm
04:00 AM 63.5°F17.5°C 58.6°F14.8°C 84% Calm Calm -- 29.94 in1013.9 mb 0.00 in0.0 mm 0.00 in0.0 mm 0.00 in0.0 mm
03:45 AM 63.9°F17.7°C 58.6°F14.8°C 83% Calm Calm -- 29.93 in1013.5 mb 0.00 in0.0 mm 0.00 in0.0 mm 0.00 in0.0 mm
03:30 AM 63.9°F17.7°C 58.3°F14.6°C 82% Calm Calm -- 29.93 in1013.5 mb 0.00 in0.0 mm 0.00 in0.0 mm 0.00 in0.0 mm
03:15 AM 64.0°F17.8°C 58.8°F14.9°C 83% Calm Calm -- 29.93 in1013.5 mb 0.00 in0.0 mm 0.00 in0.0 mm 0.00 in0.0 mm
03:00 AM 64.2°F17.9°C 58.6°F14.8°C 82% Calm Calm -- 29.93 in1013.5 mb 0.00 in0.0 mm 0.00 in0.0 mm 0.00 in0.0 mm
02:45 AM 64.6°F18.1°C 59.0°F15.0°C 82% Calm Calm -- 29.93 in1013.5 mb 0.00 in0.0 mm 0.00 in0.0 mm 0.00 in0.0 mm
02:30 AM 64.8°F18.2°C 59.5°F15.3°C 83% Calm Calm -- 29.93 in1013.5 mb 0.00 in0.0 mm 0.00 in0.0 mm 0.00 in0.0 mm
02:15 AM 64.9°F18.3°C 59.3°F15.2°C 82% Calm Calm -- 29.93 in1013.5 mb 0.00 in0.0 mm 0.00 in0.0 mm 0.00 in0.0 mm
02:00 AM 65.5°F18.6°C 60.2°F15.7°C 83% Calm Calm -- 29.93 in1013.5 mb 0.00 in0.0 mm 0.00 in0.0 mm 0.00 in0.0 mm
01:45 AM 65.8°F18.8°C 60.2°F15.7°C 82% Calm Calm -- 29.93 in1013.5 mb 0.00 in0.0 mm 0.00 in0.0 mm 0.00 in0.0 mm
01:30 AM 65.8°F18.8°C 60.5°F15.8°C 83% Calm Calm -- 29.93 in1013.5 mb 0.00 in0.0 mm 0.00 in0.0 mm 0.00 in0.0 mm
01:15 AM 66.6°F19.2°C 61.2°F16.2°C 83% Calm Calm -- 29.93 in1013.5 mb 0.00 in0.0 mm 0.00 in0.0 mm 0.00 in0.0 mm
01:00 AM 67.3°F19.6°C 62.3°F16.8°C 84% Calm Calm -- 29.93 in1013.5 mb 0.00 in0.0 mm 0.00 in0.0 mm 0.00 in0.0 mm
12:45 AM 67.8°F19.9°C 62.5°F16.9°C 83% Calm Calm -- 29.93 in1013.5 mb 0.00 in0.0 mm 0.00 in0.0 mm 0.00 in0.0 mm
12:30 AM 68.2°F20.1°C 63.2°F17.3°C 84% Calm Calm -- 29.93 in1013.5 mb 0.00 in0.0 mm 0.00 in0.0 mm 0.00 in0.0 mm
12:15 AM 68.2°F20.1°C 63.2°F17.3°C 84% Calm Calm -- 29.93 in1013.5 mb 0.00 in0.0 mm 0.00 in0.0 mm 0.00 in0.0 mm
12:00 AM 68.4°F20.2°C 62.6°F17.0°C 82% Calm Calm -- 29.93 in1013.5 mb 0.00 in0.0 mm 0.00 in0.0 mm 0.00 in0.0 mm